sensor_id;sensor_type;location;lat;lon;timestamp;temperature;humidity
4312;DHT22;2169;49.086;9.284;2023-07-30T00:00:25;22.00;70.10
4312;DHT22;2169;49.086;9.284;2023-07-30T00:02:53;22.10;70.20
4312;DHT22;2169;49.086;9.284;2023-07-30T00:05:19;22.00;70.20
4312;DHT22;2169;49.086;9.284;2023-07-30T00:07:47;22.00;70.30
4312;DHT22;2169;49.086;9.284;2023-07-30T00:10:14;22.00;70.40
4312;DHT22;2169;49.086;9.284;2023-07-30T00:12:41;22.00;70.30
4312;DHT22;2169;49.086;9.284;2023-07-30T00:15:08;21.90;70.30
4312;DHT22;2169;49.086;9.284;2023-07-30T00:17:35;21.90;70.60
4312;DHT22;2169;49.086;9.284;2023-07-30T00:20:02;21.80;70.70
4312;DHT22;2169;49.086;9.284;2023-07-30T00:22:30;21.80;70.80
4312;DHT22;2169;49.086;9.284;2023-07-30T00:24:58;21.80;71.00
4312;DHT22;2169;49.086;9.284;2023-07-30T00:27:25;21.80;71.10
4312;DHT22;2169;49.086;9.284;2023-07-30T00:29:52;21.80;71.20
4312;DHT22;2169;49.086;9.284;2023-07-30T00:32:19;21.80;71.10
4312;DHT22;2169;49.086;9.284;2023-07-30T00:34:45;21.80;71.10
4312;DHT22;2169;49.086;9.284;2023-07-30T00:37:12;21.70;71.10
4312;DHT22;2169;49.086;9.284;2023-07-30T00:39:39;21.80;71.40
4312;DHT22;2169;49.086;9.284;2023-07-30T00:42:07;21.70;71.40
4312;DHT22;2169;49.086;9.284;2023-07-30T00:44:34;21.70;71.40
4312;DHT22;2169;49.086;9.284;2023-07-30T00:47:00;21.70;71.40
4312;DHT22;2169;49.086;9.284;2023-07-30T00:49:27;21.70;71.50
4312;DHT22;2169;49.086;9.284;2023-07-30T00:51:54;21.70;71.50
4312;DHT22;2169;49.086;9.284;2023-07-30T00:54:22;21.70;71.40
4312;DHT22;2169;49.086;9.284;2023-07-30T00:56:51;21.70;71.40
4312;DHT22;2169;49.086;9.284;2023-07-30T00:59:20;21.60;71.30
4312;DHT22;2169;49.086;9.284;2023-07-30T01:01:47;21.60;71.30
4312;DHT22;2169;49.086;9.284;2023-07-30T01:04:15;21.60;71.40
4312;DHT22;2169;49.086;9.284;2023-07-30T01:06:42;21.50;71.20
4312;DHT22;2169;49.086;9.284;2023-07-30T01:09:09;21.50;71.10
4312;DHT22;2169;49.086;9.284;2023-07-30T01:11:36;21.40;70.90
4312;DHT22;2169;49.086;9.284;2023-07-30T01:14:05;21.40;70.80
4312;DHT22;2169;49.086;9.284;2023-07-30T01:16:33;21.30;70.80
4312;DHT22;2169;49.086;9.284;2023-07-30T01:19:00;21.30;70.90
4312;DHT22;2169;49.086;9.284;2023-07-30T01:21:31;21.20;70.90
4312;DHT22;2169;49.086;9.284;2023-07-30T01:23:58;21.20;70.90
4312;DHT22;2169;49.086;9.284;2023-07-30T01:26:30;21.20;71.00
4312;DHT22;2169;49.086;9.284;2023-07-30T01:29:00;21.20;71.10
4312;DHT22;2169;49.086;9.284;2023-07-30T01:31:30;21.20;71.00
4312;DHT22;2169;49.086;9.284;2023-07-30T01:33:57;21.10;71.00
4312;DHT22;2169;49.086;9.284;2023-07-30T01:36:26;21.10;71.00
4312;DHT22;2169;49.086;9.284;2023-07-30T01:38:56;21.10;71.10
4312;DHT22;2169;49.086;9.284;2023-07-30T01:41:23;21.10;71.10
4312;DHT22;2169;49.086;9.284;2023-07-30T01:43:50;21.10;71.10
4312;DHT22;2169;49.086;9.284;2023-07-30T01:46:17;21.10;71.20
4312;DHT22;2169;49.086;9.284;2023-07-30T01:48:44;21.10;71.30
4312;DHT22;2169;49.086;9.284;2023-07-30T01:51:10;21.10;71.40
4312;DHT22;2169;49.086;9.284;2023-07-30T01:53:37;21.00;71.40
4312;DHT22;2169;49.086;9.284;2023-07-30T01:56:05;21.00;71.40
4312;DHT22;2169;49.086;9.284;2023-07-30T01:58:32;21.00;71.40
4312;DHT22;2169;49.086;9.284;2023-07-30T02:00:59;21.00;71.40
4312;DHT22;2169;49.086;9.284;2023-07-30T02:03:25;21.00;71.40
4312;DHT22;2169;49.086;9.284;2023-07-30T02:05:52;20.90;71.30
4312;DHT22;2169;49.086;9.284;2023-07-30T02:08:19;20.90;71.30
4312;DHT22;2169;49.086;9.284;2023-07-30T02:10:54;20.90;71.30
4312;DHT22;2169;49.086;9.284;2023-07-30T02:13:23;20.90;71.30
4312;DHT22;2169;49.086;9.284;2023-07-30T02:15:49;20.80;71.20
4312;DHT22;2169;49.086;9.284;2023-07-30T02:18:16;20.80;71.20
4312;DHT22;2169;49.086;9.284;2023-07-30T02:20:43;20.80;71.20
4312;DHT22;2169;49.086;9.284;2023-07-30T02:23:10;20.80;71.20
4312;DHT22;2169;49.086;9.284;2023-07-30T02:25:37;20.70;71.10
4312;DHT22;2169;49.086;9.284;2023-07-30T02:28:04;20.70;71.20
4312;DHT22;2169;49.086;9.284;2023-07-30T02:30:32;20.70;71.20
4312;DHT22;2169;49.086;9.284;2023-07-30T02:32:59;20.70;71.30
4312;DHT22;2169;49.086;9.284;2023-07-30T02:35:26;20.70;71.40
4312;DHT22;2169;49.086;9.284;2023-07-30T02:37:53;20.70;71.40
4312;DHT22;2169;49.086;9.284;2023-07-30T02:40:19;20.60;71.30
4312;DHT22;2169;49.086;9.284;2023-07-30T02:42:46;20.60;71.40
4312;DHT22;2169;49.086;9.284;2023-07-30T02:45:13;20.60;71.40
4312;DHT22;2169;49.086;9.284;2023-07-30T02:47:41;20.60;71.50
4312;DHT22;2169;49.086;9.284;2023-07-30T02:50:08;20.60;71.60
4312;DHT22;2169;49.086;9.284;2023-07-30T02:52:35;20.60;71.70
4312;DHT22;2169;49.086;9.284;2023-07-30T02:55:02;20.60;71.70
4312;DHT22;2169;49.086;9.284;2023-07-30T02:57:29;20.60;71.80
4312;DHT22;2169;49.086;9.284;2023-07-30T02:59:56;20.60;71.90
4312;DHT22;2169;49.086;9.284;2023-07-30T03:02:22;20.60;72.00
4312;DHT22;2169;49.086;9.284;2023-07-30T03:04:50;20.60;72.10
4312;DHT22;2169;49.086;9.284;2023-07-30T03:07:17;20.50;72.00
4312;DHT22;2169;49.086;9.284;2023-07-30T03:09:45;20.50;72.10
4312;DHT22;2169;49.086;9.284;2023-07-30T03:12:12;20.50;72.30
4312;DHT22;2169;49.086;9.284;2023-07-30T03:14:38;20.50;72.30
4312;DHT22;2169;49.086;9.284;2023-07-30T03:17:05;20.50;72.50
4312;DHT22;2169;49.086;9.284;2023-07-30T03:19:32;20.50;72.60
4312;DHT22;2169;49.086;9.284;2023-07-30T03:22:00;20.50;72.70
4312;DHT22;2169;49.086;9.284;2023-07-30T03:24:27;20.40;72.70
4312;DHT22;2169;49.086;9.284;2023-07-30T03:26:53;20.40;72.80
4312;DHT22;2169;49.086;9.284;2023-07-30T03:29:20;20.40;72.90
4312;DHT22;2169;49.086;9.284;2023-07-30T03:31:47;20.40;72.90
4312;DHT22;2169;49.086;9.284;2023-07-30T03:34:14;20.50;73.10
4312;DHT22;2169;49.086;9.284;2023-07-30T03:36:40;20.50;73.10
4312;DHT22;2169;49.086;9.284;2023-07-30T03:39:08;20.50;73.10
4312;DHT22;2169;49.086;9.284;2023-07-30T03:41:36;20.50;73.20
4312;DHT22;2169;49.086;9.284;2023-07-30T03:44:03;20.50;73.30
4312;DHT22;2169;49.086;9.284;2023-07-30T03:46:29;20.50;73.30
4312;DHT22;2169;49.086;9.284;2023-07-30T03:48:56;20.40;73.20
4312;DHT22;2169;49.086;9.284;2023-07-30T03:51:23;20.50;73.40
4312;DHT22;2169;49.086;9.284;2023-07-30T03:53:50;20.50;73.50
4312;DHT22;2169;49.086;9.284;2023-07-30T03:56:18;20.50;73.50
4312;DHT22;2169;49.086;9.284;2023-07-30T03:58:44;20.50;73.60
4312;DHT22;2169;49.086;9.284;2023-07-30T04:01:11;20.50;73.70
4312;DHT22;2169;49.086;9.284;2023-07-30T04:03:38;20.50;73.70
4312;DHT22;2169;49.086;9.284;2023-07-30T04:06:04;20.50;73.80
4312;DHT22;2169;49.086;9.284;2023-07-30T04:08:31;20.50;73.80
4312;DHT22;2169;49.086;9.284;2023-07-30T04:10:58;20.50;73.90
4312;DHT22;2169;49.086;9.284;2023-07-30T04:13:26;20.50;73.90
4312;DHT22;2169;49.086;9.284;2023-07-30T04:15:53;20.40;73.90
4312;DHT22;2169;49.086;9.284;2023-07-30T04:18:19;20.40;74.00
4312;DHT22;2169;49.086;9.284;2023-07-30T04:20:48;20.40;74.10
4312;DHT22;2169;49.086;9.284;2023-07-30T04:23:15;20.30;74.10
4312;DHT22;2169;49.086;9.284;2023-07-30T04:25:43;20.40;74.30
4312;DHT22;2169;49.086;9.284;2023-07-30T04:28:09;20.30;74.40
4312;DHT22;2169;49.086;9.284;2023-07-30T04:30:37;20.30;75.10
4312;DHT22;2169;49.086;9.284;2023-07-30T04:33:04;20.30;74.50
4312;DHT22;2169;49.086;9.284;2023-07-30T04:35:31;20.30;74.70
4312;DHT22;2169;49.086;9.284;2023-07-30T04:37:57;20.30;74.70
4312;DHT22;2169;49.086;9.284;2023-07-30T04:40:24;20.30;74.90
4312;DHT22;2169;49.086;9.284;2023-07-30T04:42:51;20.30;75.00
4312;DHT22;2169;49.086;9.284;2023-07-30T04:45:18;20.30;75.00
4312;DHT22;2169;49.086;9.284;2023-07-30T04:47:46;20.30;75.10
4312;DHT22;2169;49.086;9.284;2023-07-30T04:50:13;20.30;75.20
4312;DHT22;2169;49.086;9.284;2023-07-30T04:52:39;20.30;75.20
4312;DHT22;2169;49.086;9.284;2023-07-30T04:55:07;20.30;75.20
4312;DHT22;2169;49.086;9.284;2023-07-30T04:57:33;20.30;75.30
4312;DHT22;2169;49.086;9.284;2023-07-30T05:00:00;20.40;75.40
4312;DHT22;2169;49.086;9.284;2023-07-30T05:02:27;20.40;75.40
4312;DHT22;2169;49.086;9.284;2023-07-30T05:04:55;20.40;75.40
4312;DHT22;2169;49.086;9.284;2023-07-30T05:07:22;20.40;75.50
4312;DHT22;2169;49.086;9.284;2023-07-30T05:09:49;20.40;75.60
4312;DHT22;2169;49.086;9.284;2023-07-30T05:12:16;20.40;75.60
4312;DHT22;2169;49.086;9.284;2023-07-30T05:14:42;20.40;75.70
4312;DHT22;2169;49.086;9.284;2023-07-30T05:17:09;20.30;75.70
4312;DHT22;2169;49.086;9.284;2023-07-30T05:19:36;20.30;75.90
4312;DHT22;2169;49.086;9.284;2023-07-30T05:22:05;20.30;76.00
4312;DHT22;2169;49.086;9.284;2023-07-30T05:24:33;20.30;76.10
4312;DHT22;2169;49.086;9.284;2023-07-30T05:27:02;20.30;76.20
4312;DHT22;2169;49.086;9.284;2023-07-30T05:29:29;20.30;76.40
4312;DHT22;2169;49.086;9.284;2023-07-30T05:31:56;20.20;76.40
4312;DHT22;2169;49.086;9.284;2023-07-30T05:34:22;20.20;76.40
4312;DHT22;2169;49.086;9.284;2023-07-30T05:36:49;20.20;76.50
4312;DHT22;2169;49.086;9.284;2023-07-30T05:39:17;20.20;76.50
4312;DHT22;2169;49.086;9.284;2023-07-30T05:41:44;20.10;76.50
4312;DHT22;2169;49.086;9.284;2023-07-30T05:44:10;20.10;76.60
4312;DHT22;2169;49.086;9.284;2023-07-30T05:46:37;20.10;76.70
4312;DHT22;2169;49.086;9.284;2023-07-30T05:49:04;20.10;76.80
4312;DHT22;2169;49.086;9.284;2023-07-30T05:51:31;20.10;76.90
4312;DHT22;2169;49.086;9.284;2023-07-30T05:53:57;20.00;76.90
4312;DHT22;2169;49.086;9.284;2023-07-30T05:56:25;20.00;77.00
4312;DHT22;2169;49.086;9.284;2023-07-30T05:58:52;20.00;77.00
4312;DHT22;2169;49.086;9.284;2023-07-30T06:01:19;20.00;77.10
4312;DHT22;2169;49.086;9.284;2023-07-30T06:03:46;20.00;77.20
4312;DHT22;2169;49.086;9.284;2023-07-30T06:06:13;20.00;77.20
4312;DHT22;2169;49.086;9.284;2023-07-30T06:08:39;20.00;77.20
4312;DHT22;2169;49.086;9.284;2023-07-30T06:11:06;20.00;77.30
4312;DHT22;2169;49.086;9.284;2023-07-30T06:13:34;20.00;77.40
4312;DHT22;2169;49.086;9.284;2023-07-30T06:16:01;20.00;77.40
4312;DHT22;2169;49.086;9.284;2023-07-30T06:18:28;19.90;77.30
4312;DHT22;2169;49.086;9.284;2023-07-30T06:20:55;20.00;77.50
4312;DHT22;2169;49.086;9.284;2023-07-30T06:23:21;20.00;77.50
4312;DHT22;2169;49.086;9.284;2023-07-30T06:25:48;20.00;77.50
4312;DHT22;2169;49.086;9.284;2023-07-30T06:28:15;20.00;77.50
4312;DHT22;2169;49.086;9.284;2023-07-30T06:30:43;20.00;77.50
4312;DHT22;2169;49.086;9.284;2023-07-30T06:33:10;20.00;77.50
4312;DHT22;2169;49.086;9.284;2023-07-30T06:35:38;20.00;77.40
4312;DHT22;2169;49.086;9.284;2023-07-30T06:38:05;20.10;77.50
4312;DHT22;2169;49.086;9.284;2023-07-30T06:40:32;20.10;77.60
4312;DHT22;2169;49.086;9.284;2023-07-30T06:42:59;20.10;77.50
4312;DHT22;2169;49.086;9.284;2023-07-30T06:45:25;20.10;77.60
4312;DHT22;2169;49.086;9.284;2023-07-30T06:47:54;20.10;77.60
4312;DHT22;2169;49.086;9.284;2023-07-30T06:50:20;20.20;77.80
4312;DHT22;2169;49.086;9.284;2023-07-30T06:52:47;20.20;77.80
4312;DHT22;2169;49.086;9.284;2023-07-30T06:55:15;20.30;77.90
4312;DHT22;2169;49.086;9.284;2023-07-30T06:57:41;20.30;77.80
4312;DHT22;2169;49.086;9.284;2023-07-30T07:00:09;20.30;77.80
4312;DHT22;2169;49.086;9.284;2023-07-30T07:02:36;20.40;78.00
4312;DHT22;2169;49.086;9.284;2023-07-30T07:05:05;20.40;78.10
4312;DHT22;2169;49.086;9.284;2023-07-30T07:07:31;20.50;78.30
4312;DHT22;2169;49.086;9.284;2023-07-30T07:09:58;20.60;78.20
4312;DHT22;2169;49.086;9.284;2023-07-30T07:12:25;20.60;78.10
4312;DHT22;2169;49.086;9.284;2023-07-30T07:14:52;20.60;78.10
4312;DHT22;2169;49.086;9.284;2023-07-30T07:17:19;20.70;78.20
4312;DHT22;2169;49.086;9.284;2023-07-30T07:19:46;20.70;78.10
4312;DHT22;2169;49.086;9.284;2023-07-30T07:22:14;20.80;78.10
4312;DHT22;2169;49.086;9.284;2023-07-30T07:24:43;20.80;78.10
4312;DHT22;2169;49.086;9.284;2023-07-30T07:27:10;20.90;78.10
4312;DHT22;2169;49.086;9.284;2023-07-30T07:29:38;20.90;78.00
4312;DHT22;2169;49.086;9.284;2023-07-30T07:32:05;20.90;77.90
4312;DHT22;2169;49.086;9.284;2023-07-30T07:34:32;21.00;77.90
4312;DHT22;2169;49.086;9.284;2023-07-30T07:36:59;21.00;77.80
4312;DHT22;2169;49.086;9.284;2023-07-30T07:39:27;21.00;77.50
4312;DHT22;2169;49.086;9.284;2023-07-30T07:41:54;21.00;77.40
4312;DHT22;2169;49.086;9.284;2023-07-30T07:44:20;21.00;77.20
4312;DHT22;2169;49.086;9.284;2023-07-30T07:46:48;21.00;77.90
4312;DHT22;2169;49.086;9.284;2023-07-30T07:49:14;21.00;77.20
4312;DHT22;2169;49.086;9.284;2023-07-30T07:51:41;21.00;77.10
4312;DHT22;2169;49.086;9.284;2023-07-30T07:54:08;20.90;76.90
4312;DHT22;2169;49.086;9.284;2023-07-30T07:56:36;20.90;76.80
4312;DHT22;2169;49.086;9.284;2023-07-30T07:59:02;20.80;76.90
4312;DHT22;2169;49.086;9.284;2023-07-30T08:01:29;20.70;77.00
4312;DHT22;2169;49.086;9.284;2023-07-30T08:03:56;20.70;77.10
4312;DHT22;2169;49.086;9.284;2023-07-30T08:06:23;20.60;77.10
4312;DHT22;2169;49.086;9.284;2023-07-30T08:08:49;20.60;77.10
4312;DHT22;2169;49.086;9.284;2023-07-30T08:11:16;20.50;76.90
4312;DHT22;2169;49.086;9.284;2023-07-30T08:13:44;20.50;76.90
4312;DHT22;2169;49.086;9.284;2023-07-30T08:16:11;20.50;77.00
4312;DHT22;2169;49.086;9.284;2023-07-30T08:18:38;20.50;77.00
4312;DHT22;2169;49.086;9.284;2023-07-30T08:21:05;20.50;77.20
4312;DHT22;2169;49.086;9.284;2023-07-30T08:23:32;20.40;77.20
4312;DHT22;2169;49.086;9.284;2023-07-30T08:25:58;20.40;77.30
4312;DHT22;2169;49.086;9.284;2023-07-30T08:28:25;20.40;77.40
4312;DHT22;2169;49.086;9.284;2023-07-30T08:30:59;20.50;77.50
4312;DHT22;2169;49.086;9.284;2023-07-30T08:33:26;20.50;77.60
4312;DHT22;2169;49.086;9.284;2023-07-30T08:35:54;20.50;77.70
4312;DHT22;2169;49.086;9.284;2023-07-30T08:38:21;20.50;77.70
4312;DHT22;2169;49.086;9.284;2023-07-30T08:40:48;20.50;77.70
4312;DHT22;2169;49.086;9.284;2023-07-30T08:43:15;20.60;77.90
4312;DHT22;2169;49.086;9.284;2023-07-30T08:45:43;20.60;77.90
4312;DHT22;2169;49.086;9.284;2023-07-30T08:48:11;20.70;78.10
4312;DHT22;2169;49.086;9.284;2023-07-30T08:50:38;20.70;78.00
4312;DHT22;2169;49.086;9.284;2023-07-30T08:53:07;20.70;78.00
4312;DHT22;2169;49.086;9.284;2023-07-30T08:55:34;20.80;78.10
4312;DHT22;2169;49.086;9.284;2023-07-30T08:58:04;20.90;78.20
4312;DHT22;2169;49.086;9.284;2023-07-30T09:00:32;20.90;78.20
4312;DHT22;2169;49.086;9.284;2023-07-30T09:03:03;21.00;78.20
4312;DHT22;2169;49.086;9.284;2023-07-30T09:05:31;21.00;78.30
4312;DHT22;2169;49.086;9.284;2023-07-30T09:07:58;21.10;78.40
4312;DHT22;2169;49.086;9.284;2023-07-30T09:10:26;21.10;78.30
4312;DHT22;2169;49.086;9.284;2023-07-30T09:12:53;21.20;78.30
4312;DHT22;2169;49.086;9.284;2023-07-30T09:15:29;21.30;78.30
4312;DHT22;2169;49.086;9.284;2023-07-30T09:17:57;21.30;77.90
4312;DHT22;2169;49.086;9.284;2023-07-30T09:20:24;21.40;77.90
4312;DHT22;2169;49.086;9.284;2023-07-30T09:22:52;21.40;77.30
4312;DHT22;2169;49.086;9.284;2023-07-30T09:25:19;21.40;76.80
4312;DHT22;2169;49.086;9.284;2023-07-30T09:27:48;21.40;76.60
4312;DHT22;2169;49.086;9.284;2023-07-30T09:30:22;21.40;76.20
4312;DHT22;2169;49.086;9.284;2023-07-30T09:32:51;21.40;75.90
4312;DHT22;2169;49.086;9.284;2023-07-30T09:35:19;21.40;75.60
4312;DHT22;2169;49.086;9.284;2023-07-30T09:37:46;21.40;75.20
4312;DHT22;2169;49.086;9.284;2023-07-30T09:40:15;21.40;75.00
4312;DHT22;2169;49.086;9.284;2023-07-30T09:42:45;21.50;75.10
4312;DHT22;2169;49.086;9.284;2023-07-30T09:45:17;21.60;75.10
4312;DHT22;2169;49.086;9.284;2023-07-30T09:47:46;21.70;75.00
4312;DHT22;2169;49.086;9.284;2023-07-30T09:50:13;21.70;74.50
4312;DHT22;2169;49.086;9.284;2023-07-30T09:52:41;21.80;74.20
4312;DHT22;2169;49.086;9.284;2023-07-30T09:55:09;21.90;73.90
4312;DHT22;2169;49.086;9.284;2023-07-30T09:57:37;22.00;73.10
4312;DHT22;2169;49.086;9.284;2023-07-30T10:00:06;22.10;72.30
4312;DHT22;2169;49.086;9.284;2023-07-30T10:02:37;22.10;71.30
4312;DHT22;2169;49.086;9.284;2023-07-30T10:05:08;22.20;70.20
4312;DHT22;2169;49.086;9.284;2023-07-30T10:07:39;22.30;70.10
4312;DHT22;2169;49.086;9.284;2023-07-30T10:10:08;22.40;69.10
4312;DHT22;2169;49.086;9.284;2023-07-30T10:12:37;22.50;68.70
4312;DHT22;2169;49.086;9.284;2023-07-30T10:15:06;22.60;68.20
4312;DHT22;2169;49.086;9.284;2023-07-30T10:17:33;22.60;67.50
4312;DHT22;2169;49.086;9.284;2023-07-30T10:20:22;22.70;67.20
4312;DHT22;2169;49.086;9.284;2023-07-30T10:22:51;22.80;66.50
4312;DHT22;2169;49.086;9.284;2023-07-30T10:25:21;22.80;65.90
4312;DHT22;2169;49.086;9.284;2023-07-30T10:27:51;22.80;65.30
4312;DHT22;2169;49.086;9.284;2023-07-30T10:30:19;22.90;65.10
4312;DHT22;2169;49.086;9.284;2023-07-30T10:33:01;22.90;64.70
4312;DHT22;2169;49.086;9.284;2023-07-30T10:35:39;23.00;64.20
4312;DHT22;2169;49.086;9.284;2023-07-30T10:38:16;23.00;63.90
4312;DHT22;2169;49.086;9.284;2023-07-30T10:41:02;23.10;63.50
4312;DHT22;2169;49.086;9.284;2023-07-30T10:43:33;23.10;63.20
4312;DHT22;2169;49.086;9.284;2023-07-30T10:46:00;23.10;62.80
4312;DHT22;2169;49.086;9.284;2023-07-30T10:48:32;23.20;62.80
4312;DHT22;2169;49.086;9.284;2023-07-30T10:51:00;23.30;62.50
4312;DHT22;2169;49.086;9.284;2023-07-30T10:53:27;23.30;62.50
4312;DHT22;2169;49.086;9.284;2023-07-30T10:55:54;23.40;62.40
4312;DHT22;2169;49.086;9.284;2023-07-30T10:58:25;23.50;62.10
4312;DHT22;2169;49.086;9.284;2023-07-30T11:00:53;23.60;61.90
4312;DHT22;2169;49.086;9.284;2023-07-30T11:03:20;23.60;61.40
4312;DHT22;2169;49.086;9.284;2023-07-30T11:05:47;23.70;60.90
4312;DHT22;2169;49.086;9.284;2023-07-30T11:08:14;23.70;60.30
4312;DHT22;2169;49.086;9.284;2023-07-30T11:10:42;23.80;60.20
4312;DHT22;2169;49.086;9.284;2023-07-30T11:13:09;23.90;59.70
4312;DHT22;2169;49.086;9.284;2023-07-30T11:15:41;23.90;59.40
4312;DHT22;2169;49.086;9.284;2023-07-30T11:18:09;23.90;59.20
4312;DHT22;2169;49.086;9.284;2023-07-30T11:20:37;24.00;59.10
4312;DHT22;2169;49.086;9.284;2023-07-30T11:23:17;24.00;58.60
4312;DHT22;2169;49.086;9.284;2023-07-30T11:25:46;24.10;58.20
4312;DHT22;2169;49.086;9.284;2023-07-30T11:28:13;24.00;57.80
4312;DHT22;2169;49.086;9.284;2023-07-30T11:30:40;24.00;57.90
4312;DHT22;2169;49.086;9.284;2023-07-30T11:33:08;24.00;57.60
4312;DHT22;2169;49.086;9.284;2023-07-30T11:35:41;24.00;57.20
4312;DHT22;2169;49.086;9.284;2023-07-30T11:38:08;23.90;57.10
4312;DHT22;2169;49.086;9.284;2023-07-30T11:40:35;23.90;57.00
4312;DHT22;2169;49.086;9.284;2023-07-30T11:43:02;23.90;56.90
4312;DHT22;2169;49.086;9.284;2023-07-30T11:45:30;23.90;56.90
4312;DHT22;2169;49.086;9.284;2023-07-30T11:48:05;23.90;57.10
4312;DHT22;2169;49.086;9.284;2023-07-30T11:50:47;24.00;57.10
4312;DHT22;2169;49.086;9.284;2023-07-30T11:53:14;24.10;56.60
4312;DHT22;2169;49.086;9.284;2023-07-30T11:55:42;24.20;56.10
4312;DHT22;2169;49.086;9.284;2023-07-30T11:58:10;24.20;55.60
4312;DHT22;2169;49.086;9.284;2023-07-30T12:00:38;24.20;55.50
4312;DHT22;2169;49.086;9.284;2023-07-30T12:03:06;24.30;55.30
4312;DHT22;2169;49.086;9.284;2023-07-30T12:05:34;24.30;55.30
4312;DHT22;2169;49.086;9.284;2023-07-30T12:08:03;24.40;55.40
4312;DHT22;2169;49.086;9.284;2023-07-30T12:10:41;24.50;55.00
4312;DHT22;2169;49.086;9.284;2023-07-30T12:13:15;24.60;54.60
4312;DHT22;2169;49.086;9.284;2023-07-30T12:15:44;24.60;53.90
4312;DHT22;2169;49.086;9.284;2023-07-30T12:18:10;24.70;53.50
4312;DHT22;2169;49.086;9.284;2023-07-30T12:20:37;24.70;53.40
4312;DHT22;2169;49.086;9.284;2023-07-30T12:23:05;24.80;53.60
4312;DHT22;2169;49.086;9.284;2023-07-30T12:25:32;24.80;53.20
4312;DHT22;2169;49.086;9.284;2023-07-30T12:28:00;24.90;53.10
4312;DHT22;2169;49.086;9.284;2023-07-30T12:30:27;24.90;53.30
4312;DHT22;2169;49.086;9.284;2023-07-30T12:32:53;24.90;53.30
4312;DHT22;2169;49.086;9.284;2023-07-30T12:35:20;25.00;53.30
4312;DHT22;2169;49.086;9.284;2023-07-30T12:37:47;25.00;52.50
4312;DHT22;2169;49.086;9.284;2023-07-30T12:40:15;25.10;52.10
4312;DHT22;2169;49.086;9.284;2023-07-30T12:42:42;25.20;51.30
4312;DHT22;2169;49.086;9.284;2023-07-30T12:45:10;25.20;50.60
4312;DHT22;2169;49.086;9.284;2023-07-30T12:47:36;25.20;50.30
4312;DHT22;2169;49.086;9.284;2023-07-30T12:50:04;25.20;49.80
4312;DHT22;2169;49.086;9.284;2023-07-30T12:52:32;25.10;49.40
4312;DHT22;2169;49.086;9.284;2023-07-30T12:54:59;25.10;49.40
4312;DHT22;2169;49.086;9.284;2023-07-30T12:57:27;25.00;49.60
4312;DHT22;2169;49.086;9.284;2023-07-30T12:59:54;25.00;49.80
4312;DHT22;2169;49.086;9.284;2023-07-30T13:02:21;25.10;50.00
4312;DHT22;2169;49.086;9.284;2023-07-30T13:04:47;25.10;50.00
4312;DHT22;2169;49.086;9.284;2023-07-30T13:07:14;25.10;49.60
4312;DHT22;2169;49.086;9.284;2023-07-30T13:09:41;25.10;49.50
4312;DHT22;2169;49.086;9.284;2023-07-30T13:12:08;25.00;50.10
4312;DHT22;2169;49.086;9.284;2023-07-30T13:14:36;25.00;49.80
4312;DHT22;2169;49.086;9.284;2023-07-30T13:17:03;25.10;50.00
4312;DHT22;2169;49.086;9.284;2023-07-30T13:19:30;25.10;49.90
4312;DHT22;2169;49.086;9.284;2023-07-30T13:21:58;25.10;50.00
4312;DHT22;2169;49.086;9.284;2023-07-30T13:24:24;25.10;50.00
4312;DHT22;2169;49.086;9.284;2023-07-30T13:26:52;25.10;49.50
4312;DHT22;2169;49.086;9.284;2023-07-30T13:29:19;25.20;49.50
4312;DHT22;2169;49.086;9.284;2023-07-30T13:31:47;25.10;49.20
4312;DHT22;2169;49.086;9.284;2023-07-30T13:34:14;25.20;49.40
4312;DHT22;2169;49.086;9.284;2023-07-30T13:36:40;25.20;48.80
4312;DHT22;2169;49.086;9.284;2023-07-30T13:39:07;25.20;48.40
4312;DHT22;2169;49.086;9.284;2023-07-30T13:41:34;25.20;48.30
4312;DHT22;2169;49.086;9.284;2023-07-30T13:44:00;25.20;48.40
4312;DHT22;2169;49.086;9.284;2023-07-30T13:46:27;25.20;48.10
4312;DHT22;2169;49.086;9.284;2023-07-30T13:48:55;25.30;48.20
4312;DHT22;2169;49.086;9.284;2023-07-30T13:51:22;25.20;47.60
4312;DHT22;2169;49.086;9.284;2023-07-30T13:53:49;25.20;47.60
4312;DHT22;2169;49.086;9.284;2023-07-30T13:56:16;25.10;47.50
4312;DHT22;2169;49.086;9.284;2023-07-30T13:58:42;25.00;47.10
4312;DHT22;2169;49.086;9.284;2023-07-30T14:01:09;24.90;47.00
4312;DHT22;2169;49.086;9.284;2023-07-30T14:03:36;24.80;47.30
4312;DHT22;2169;49.086;9.284;2023-07-30T14:06:04;24.80;47.50
4312;DHT22;2169;49.086;9.284;2023-07-30T14:08:31;24.90;47.50
4312;DHT22;2169;49.086;9.284;2023-07-30T14:10:58;24.90;47.60
4312;DHT22;2169;49.086;9.284;2023-07-30T14:13:25;25.00;47.80
4312;DHT22;2169;49.086;9.284;2023-07-30T14:15:52;25.00;47.70
4312;DHT22;2169;49.086;9.284;2023-07-30T14:18:19;25.10;47.60
4312;DHT22;2169;49.086;9.284;2023-07-30T14:20:45;25.00;47.20
4312;DHT22;2169;49.086;9.284;2023-07-30T14:23:13;25.00;47.20
4312;DHT22;2169;49.086;9.284;2023-07-30T14:25:40;24.90;47.10
4312;DHT22;2169;49.086;9.284;2023-07-30T14:28:07;24.90;47.10
4312;DHT22;2169;49.086;9.284;2023-07-30T14:30:34;24.90;47.20
4312;DHT22;2169;49.086;9.284;2023-07-30T14:33:01;24.90;47.20
4312;DHT22;2169;49.086;9.284;2023-07-30T14:35:28;24.90;47.20
4312;DHT22;2169;49.086;9.284;2023-07-30T14:37:55;24.80;47.30
4312;DHT22;2169;49.086;9.284;2023-07-30T14:40:23;24.80;47.50
4312;DHT22;2169;49.086;9.284;2023-07-30T14:42:49;24.80;47.30
4312;DHT22;2169;49.086;9.284;2023-07-30T14:45:16;24.80;47.30
4312;DHT22;2169;49.086;9.284;2023-07-30T14:47:43;24.80;47.30
4312;DHT22;2169;49.086;9.284;2023-07-30T14:50:10;24.80;46.40
4312;DHT22;2169;49.086;9.284;2023-07-30T14:52:37;24.70;46.70
4312;DHT22;2169;49.086;9.284;2023-07-30T14:55:04;24.70;46.30
4312;DHT22;2169;49.086;9.284;2023-07-30T14:57:32;24.70;46.10
4312;DHT22;2169;49.086;9.284;2023-07-30T14:59:59;24.70;46.00
4312;DHT22;2169;49.086;9.284;2023-07-30T15:02:26;24.70;46.10
4312;DHT22;2169;49.086;9.284;2023-07-30T15:04:54;24.80;46.40
4312;DHT22;2169;49.086;9.284;2023-07-30T15:07:21;24.80;46.50
4312;DHT22;2169;49.086;9.284;2023-07-30T15:09:51;24.90;46.50
4312;DHT22;2169;49.086;9.284;2023-07-30T15:12:17;24.90;46.20
4312;DHT22;2169;49.086;9.284;2023-07-30T15:14:46;24.90;45.60
4312;DHT22;2169;49.086;9.284;2023-07-30T15:17:13;25.00;44.90
4312;DHT22;2169;49.086;9.284;2023-07-30T15:19:40;25.00;44.50
4312;DHT22;2169;49.086;9.284;2023-07-30T15:22:06;25.00;44.40
4312;DHT22;2169;49.086;9.284;2023-07-30T15:24:33;25.00;44.40
4312;DHT22;2169;49.086;9.284;2023-07-30T15:27:00;25.00;44.10
4312;DHT22;2169;49.086;9.284;2023-07-30T15:29:27;25.10;44.00
4312;DHT22;2169;49.086;9.284;2023-07-30T15:31:56;25.10;43.90
4312;DHT22;2169;49.086;9.284;2023-07-30T15:34:22;25.10;43.70
4312;DHT22;2169;49.086;9.284;2023-07-30T15:36:49;25.10;43.50
4312;DHT22;2169;49.086;9.284;2023-07-30T15:39:19;25.20;43.20
4312;DHT22;2169;49.086;9.284;2023-07-30T15:41:46;25.10;42.80
4312;DHT22;2169;49.086;9.284;2023-07-30T15:44:13;25.10;42.60
4312;DHT22;2169;49.086;9.284;2023-07-30T15:46:39;25.10;42.50
4312;DHT22;2169;49.086;9.284;2023-07-30T15:49:07;25.20;42.40
4312;DHT22;2169;49.086;9.284;2023-07-30T15:51:34;25.20;42.30
4312;DHT22;2169;49.086;9.284;2023-07-30T15:54:01;25.20;42.20
4312;DHT22;2169;49.086;9.284;2023-07-30T15:56:28;25.20;42.00
4312;DHT22;2169;49.086;9.284;2023-07-30T15:58:54;25.20;42.30
4312;DHT22;2169;49.086;9.284;2023-07-30T16:01:21;25.20;42.40
4312;DHT22;2169;49.086;9.284;2023-07-30T16:03:48;25.20;42.20